Terminal Aerodrome Forecast
Issued by NWS Pueblo, CO

Home | Current Version | Previous Version | Text Only | Print | Product List | Glossary On
Versions: 1 2 3 4 5 6 7 8 9 10 11 12 13 14 15 16 17 18 19 20 21 22 23 24 25 26 27 28 29 30 31 32 33 34 35 36 37 38 39 40 41 42 43 44 45
000
FTUS45 KPUB 242321
TAFCOS
TAF
KCOS 242321Z 2500/2524 15008KT P6SM BKN200
     FM250100 03006KT P6SM BKN200
     FM250600 35008KT P6SM SCT140 BKN200
     FM252100 VRB06KT P6SM BKN120=

USA.gov is the U.S. government's official web portal to all federal, state and local government web resources and services.